Terminal Aerodrome Forecast
Issued by NWS Grand Forks, ND

Home | Current Version | Previous Version | Text Only | Print | Product List | Glossary Off
Versions: 1 2 3 4 5 6 7 8 9 10 11 12 13 14

000
FTUS43 KFGF 150500
TAFFAR
TAF
KFAR 150520Z 1506/1606 VRB05KT P6SM SKC
     FM151300 15007KT P6SM BKN200
     FM151900 13014G20KT P6SM BKN100
     FM160200 12015G22KT P6SM BKN050=

USA.gov is the U.S. government's official web portal to all federal, state and local government web resources and services.